sensor_id;sensor_type;location;lat;lon;timestamp;pressure;altitude;pressure_sealevel;temperature;humidity
70127;BME280;57491;42.694;23.314;2023-08-01T00:00:07;94812.03;;;22.57;55.86
70127;BME280;57491;42.694;23.314;2023-08-01T00:02:34;94820.78;;;22.57;56.01
70127;BME280;57491;42.694;23.314;2023-08-01T00:05:01;94816.25;;;22.53;56.00
70127;BME280;57491;42.694;23.314;2023-08-01T00:07:28;94819.94;;;22.52;56.04
70127;BME280;57491;42.694;23.314;2023-08-01T00:09:55;94817.56;;;22.50;56.12
70127;BME280;57491;42.694;23.314;2023-08-01T00:12:24;94810.94;;;22.48;55.98
70127;BME280;57491;42.694;23.314;2023-08-01T00:14:52;94816.50;;;22.46;56.25
70127;BME280;57491;42.694;23.314;2023-08-01T00:17:20;94811.44;;;22.45;56.17
70127;BME280;57491;42.694;23.314;2023-08-01T00:19:47;94804.28;;;22.40;56.28
70127;BME280;57491;42.694;23.314;2023-08-01T00:22:14;94810.91;;;22.43;56.16
70127;BME280;57491;42.694;23.314;2023-08-01T00:24:41;94800.84;;;22.45;56.30
70127;BME280;57491;42.694;23.314;2023-08-01T00:27:08;94808.28;;;22.48;55.97
70127;BME280;57491;42.694;23.314;2023-08-01T00:29:36;94785.19;;;22.33;56.10
70127;BME280;57491;42.694;23.314;2023-08-01T00:32:05;94802.97;;;22.48;56.25
70127;BME280;57491;42.694;23.314;2023-08-01T00:34:32;94810.41;;;22.46;56.03
70127;BME280;57491;42.694;23.314;2023-08-01T00:36:59;94799.81;;;22.46;55.79
70127;BME280;57491;42.694;23.314;2023-08-01T00:39:26;94807.78;;;22.51;56.11
70127;BME280;57491;42.694;23.314;2023-08-01T00:41:53;94802.69;;;22.44;55.79
70127;BME280;57491;42.694;23.314;2023-08-01T00:44:20;94798.44;;;22.38;55.81
70127;BME280;57491;42.694;23.314;2023-08-01T00:46:47;94804.03;;;22.42;56.11
70127;BME280;57491;42.694;23.314;2023-08-01T00:49:16;94805.34;;;22.44;55.99
70127;BME280;57491;42.694;23.314;2023-08-01T00:51:43;94801.09;;;22.43;55.98
70127;BME280;57491;42.694;23.314;2023-08-01T00:54:10;94797.41;;;22.44;55.57
70127;BME280;57491;42.694;23.314;2023-08-01T00:56:37;94797.94;;;22.41;55.66
70127;BME280;57491;42.694;23.314;2023-08-01T00:59:05;94793.44;;;22.42;55.74
70127;BME280;57491;42.694;23.314;2023-08-01T01:01:31;94795.81;;;22.43;55.22
70127;BME280;57491;42.694;23.314;2023-08-01T01:03:58;94795.00;;;22.38;55.48
70127;BME280;57491;42.694;23.314;2023-08-01T01:06:32;94791.59;;;22.42;55.55
70127;BME280;57491;42.694;23.314;2023-08-01T01:09:00;94787.34;;;22.41;55.17
70127;BME280;57491;42.694;23.314;2023-08-01T01:11:27;94792.38;;;22.38;55.23
70127;BME280;57491;42.694;23.314;2023-08-01T01:13:54;94793.38;;;22.32;55.12
70127;BME280;57491;42.694;23.314;2023-08-01T01:16:21;94785.41;;;22.27;55.30
70127;BME280;57491;42.694;23.314;2023-08-01T01:18:47;94784.63;;;22.26;55.40
70127;BME280;57491;42.694;23.314;2023-08-01T01:21:15;94772.97;;;22.27;55.20
70127;BME280;57491;42.694;23.314;2023-08-01T01:23:43;94780.66;;;22.34;55.30
70127;BME280;57491;42.694;23.314;2023-08-01T01:26:11;94776.19;;;22.39;54.67
70127;BME280;57491;42.694;23.314;2023-08-01T01:28:39;94769.59;;;22.42;54.70
70127;BME280;57491;42.694;23.314;2023-08-01T01:31:08;94762.94;;;22.39;54.61
70127;BME280;57491;42.694;23.314;2023-08-01T01:33:35;94780.97;;;22.47;54.27
70127;BME280;57491;42.694;23.314;2023-08-01T01:36:03;94771.47;;;22.46;53.88
70127;BME280;57491;42.694;23.314;2023-08-01T01:38:31;94759.00;;;22.42;54.56
70127;BME280;57491;42.694;23.314;2023-08-01T01:40:58;94769.09;;;22.50;54.37
70127;BME280;57491;42.694;23.314;2023-08-01T01:43:25;94751.06;;;22.42;54.29
70127;BME280;57491;42.694;23.314;2023-08-01T01:45:52;94766.19;;;22.51;53.89
70127;BME280;57491;42.694;23.314;2023-08-01T01:48:19;94768.56;;;22.53;53.87
70127;BME280;57491;42.694;23.314;2023-08-01T01:50:46;94779.44;;;22.51;53.69
70127;BME280;57491;42.694;23.314;2023-08-01T01:53:13;94780.47;;;22.50;53.26
70127;BME280;57491;42.694;23.314;2023-08-01T01:55:42;94781.47;;;22.34;53.65
70127;BME280;57491;42.694;23.314;2023-08-01T01:58:09;94786.22;;;22.27;53.63
70127;BME280;57491;42.694;23.314;2023-08-01T02:00:36;94780.91;;;22.27;54.08
70127;BME280;57491;42.694;23.314;2023-08-01T02:03:03;94779.31;;;22.26;54.21
70127;BME280;57491;42.694;23.314;2023-08-01T02:05:30;94781.13;;;22.20;54.47
70127;BME280;57491;42.694;23.314;2023-08-01T02:07:57;94774.53;;;22.23;53.78
70127;BME280;57491;42.694;23.314;2023-08-01T02:10:24;94775.59;;;22.22;53.94
70127;BME280;57491;42.694;23.314;2023-08-01T02:12:53;94768.66;;;22.16;54.26
70127;BME280;57491;42.694;23.314;2023-08-01T02:15:20;94773.72;;;22.17;54.30
70127;BME280;57491;42.694;23.314;2023-08-01T02:17:47;94779.84;;;22.23;54.38
70127;BME280;57491;42.694;23.314;2023-08-01T02:20:14;94778.03;;;22.29;54.15
70127;BME280;57491;42.694;23.314;2023-08-01T02:22:41;94779.31;;;22.26;53.74
70127;BME280;57491;42.694;23.314;2023-08-01T02:25:08;94775.59;;;22.22;53.35
70127;BME280;57491;42.694;23.314;2023-08-01T02:27:37;94781.38;;;22.14;53.77
70127;BME280;57491;42.694;23.314;2023-08-01T02:30:06;94775.22;;;22.03;54.10
70127;BME280;57491;42.694;23.314;2023-08-01T02:32:34;94768.34;;;22.02;54.47
70127;BME280;57491;42.694;23.314;2023-08-01T02:35:01;94769.38;;;21.96;54.63
70127;BME280;57491;42.694;23.314;2023-08-01T02:37:28;94775.16;;;21.93;54.61
70127;BME280;57491;42.694;23.314;2023-08-01T02:39:55;94770.09;;;21.87;54.77
70127;BME280;57491;42.694;23.314;2023-08-01T02:42:22;94769.00;;;21.83;55.33
70127;BME280;57491;42.694;23.314;2023-08-01T02:44:49;94741.66;;;21.67;55.19
70127;BME280;57491;42.694;23.314;2023-08-01T02:47:18;94771.69;;;21.88;55.14
70127;BME280;57491;42.694;23.314;2023-08-01T02:49:45;94767.44;;;21.87;54.91
70127;BME280;57491;42.694;23.314;2023-08-01T02:52:12;94767.16;;;21.83;54.72
70127;BME280;57491;42.694;23.314;2023-08-01T02:54:39;94771.09;;;21.80;55.05
70127;BME280;57491;42.694;23.314;2023-08-01T02:57:06;94765.28;;;21.78;54.99
70127;BME280;57491;42.694;23.314;2023-08-01T02:59:33;94769.22;;;21.76;55.13
70127;BME280;57491;42.694;23.314;2023-08-01T03:02:01;94775.56;;;21.75;55.20
70127;BME280;57491;42.694;23.314;2023-08-01T03:04:29;94780.59;;;21.76;54.96
70127;BME280;57491;42.694;23.314;2023-08-01T03:06:56;94776.34;;;21.75;54.49
70127;BME280;57491;42.694;23.314;2023-08-01T03:09:23;94785.34;;;21.69;54.76
70127;BME280;57491;42.694;23.314;2023-08-01T03:11:50;94779.25;;;21.69;55.07
70127;BME280;57491;42.694;23.314;2023-08-01T03:14:17;94776.31;;;21.70;55.23
70127;BME280;57491;42.694;23.314;2023-08-01T03:16:44;94772.16;;;21.74;55.00
70127;BME280;57491;42.694;23.314;2023-08-01T03:19:12;94772.91;;;21.75;54.94
70127;BME280;57491;42.694;23.314;2023-08-01T03:21:41;94772.63;;;21.71;54.63
70127;BME280;57491;42.694;23.314;2023-08-01T03:24:08;94776.84;;;21.67;54.69
70127;BME280;57491;42.694;23.314;2023-08-01T03:26:35;94772.06;;;21.64;54.42
70127;BME280;57491;42.694;23.314;2023-08-01T03:29:03;94775.22;;;21.61;54.38
70127;BME280;57491;42.694;23.314;2023-08-01T03:31:31;94778.16;;;21.65;54.34
70127;BME280;57491;42.694;23.314;2023-08-01T03:33:58;94776.81;;;21.62;54.45
70127;BME280;57491;42.694;23.314;2023-08-01T03:36:25;94777.56;;;21.58;54.99
70127;BME280;57491;42.694;23.314;2023-08-01T03:38:53;94785.13;;;21.44;56.43
70127;BME280;57491;42.694;23.314;2023-08-01T03:41:20;94795.19;;;21.42;56.97
70127;BME280;57491;42.694;23.314;2023-08-01T03:43:48;94790.28;;;21.24;57.96
70127;BME280;57491;42.694;23.314;2023-08-01T03:46:15;94792.31;;;21.17;58.50
70127;BME280;57491;42.694;23.314;2023-08-01T03:48:42;94789.63;;;21.12;58.96
70127;BME280;57491;42.694;23.314;2023-08-01T03:51:09;94795.00;;;20.95;59.50
70127;BME280;57491;42.694;23.314;2023-08-01T03:53:36;94784.63;;;20.88;59.46
70127;BME280;57491;42.694;23.314;2023-08-01T03:56:04;94801.03;;;20.90;59.58
70127;BME280;57491;42.694;23.314;2023-08-01T03:58:31;94793.59;;;20.87;59.51
70127;BME280;57491;42.694;23.314;2023-08-01T04:00:59;94790.41;;;20.85;59.65
70127;BME280;57491;42.694;23.314;2023-08-01T04:03:26;94796.31;;;20.92;59.49
70127;BME280;57491;42.694;23.314;2023-08-01T04:05:53;94790.00;;;20.99;59.22
70127;BME280;57491;42.694;23.314;2023-08-01T04:08:20;94800.94;;;21.07;58.91
70127;BME280;57491;42.694;23.314;2023-08-01T04:10:48;94800.19;;;21.12;58.59
70127;BME280;57491;42.694;23.314;2023-08-01T04:13:17;94797.53;;;21.12;58.47
70127;BME280;57491;42.694;23.314;2023-08-01T04:15:44;94800.25;;;21.17;58.48
70127;BME280;57491;42.694;23.314;2023-08-01T04:18:11;94805.06;;;21.20;58.39
70127;BME280;57491;42.694;23.314;2023-08-01T04:20:39;94804.59;;;21.28;57.96
70127;BME280;57491;42.694;23.314;2023-08-01T04:23:06;94802.97;;;21.27;57.77
70127;BME280;57491;42.694;23.314;2023-08-01T04:25:33;94810.69;;;21.28;58.08
70127;BME280;57491;42.694;23.314;2023-08-01T04:28:00;94797.19;;;21.30;57.50
70127;BME280;57491;42.694;23.314;2023-08-01T04:30:29;94809.50;;;21.46;57.40
70127;BME280;57491;42.694;23.314;2023-08-01T04:32:56;94804.53;;;21.55;56.56
70127;BME280;57491;42.694;23.314;2023-08-01T04:35:23;94803.22;;;21.57;56.78
70127;BME280;57491;42.694;23.314;2023-08-01T04:37:50;94813.66;;;21.69;56.38
70127;BME280;57491;42.694;23.314;2023-08-01T04:40:17;94808.94;;;21.81;55.90
70127;BME280;57491;42.694;23.314;2023-08-01T04:42:44;94815.91;;;21.92;56.06
70127;BME280;57491;42.694;23.314;2023-08-01T04:45:11;94809.16;;;22.06;55.35
70127;BME280;57491;42.694;23.314;2023-08-01T04:47:39;94800.91;;;22.03;55.02
70127;BME280;57491;42.694;23.314;2023-08-01T04:50:07;94805.22;;;22.14;54.71
70127;BME280;57491;42.694;23.314;2023-08-01T04:52:34;94796.19;;;22.10;54.59
70127;BME280;57491;42.694;23.314;2023-08-01T04:55:01;94799.22;;;22.29;54.27
70127;BME280;57491;42.694;23.314;2023-08-01T04:57:29;94802.19;;;22.42;53.84
70127;BME280;57491;42.694;23.314;2023-08-01T04:59:56;94795.31;;;22.56;53.38
70127;BME280;57491;42.694;23.314;2023-08-01T05:02:22;94795.69;;;22.75;52.70
70127;BME280;57491;42.694;23.314;2023-08-01T05:04:51;94799.66;;;22.73;52.19
70127;BME280;57491;42.694;23.314;2023-08-01T05:07:18;94794.41;;;22.83;51.84
70127;BME280;57491;42.694;23.314;2023-08-01T05:09:45;94799.19;;;22.96;52.02
70127;BME280;57491;42.694;23.314;2023-08-01T05:12:12;94797.88;;;23.08;51.19
70127;BME280;57491;42.694;23.314;2023-08-01T05:14:39;94795.78;;;23.05;51.19
70127;BME280;57491;42.694;23.314;2023-08-01T05:17:07;94803.47;;;23.22;51.16
70127;BME280;57491;42.694;23.314;2023-08-01T05:19:33;94808.78;;;23.42;50.62
70127;BME280;57491;42.694;23.314;2023-08-01T05:22:02;94810.16;;;23.50;50.22
70127;BME280;57491;42.694;23.314;2023-08-01T05:24:29;94804.06;;;23.54;49.76
70127;BME280;57491;42.694;23.314;2023-08-01T05:26:56;94803.53;;;23.63;49.62
70127;BME280;57491;42.694;23.314;2023-08-01T05:29:23;94805.63;;;23.71;49.67
70127;BME280;57491;42.694;23.314;2023-08-01T05:31:51;94808.78;;;23.83;49.28
70127;BME280;57491;42.694;23.314;2023-08-01T05:34:18;94814.09;;;23.88;49.00
70127;BME280;57491;42.694;23.314;2023-08-01T05:36:45;94804.03;;;23.90;49.03
70127;BME280;57491;42.694;23.314;2023-08-01T05:39:13;94801.34;;;24.00;48.31
70127;BME280;57491;42.694;23.314;2023-08-01T05:41:41;94814.59;;;24.10;48.65
70127;BME280;57491;42.694;23.314;2023-08-01T05:44:08;94803.16;;;24.25;48.41
70127;BME280;57491;42.694;23.314;2023-08-01T05:46:35;94790.91;;;24.39;47.55
70127;BME280;57491;42.694;23.314;2023-08-01T05:49:02;94796.91;;;24.60;46.65
70127;BME280;57491;42.694;23.314;2023-08-01T05:51:29;94794.50;;;24.68;46.46
70127;BME280;57491;42.694;23.314;2023-08-01T05:53:56;94781.41;;;24.77;46.52
70127;BME280;57491;42.694;23.314;2023-08-01T05:56:25;94765.75;;;24.75;44.81
70127;BME280;57491;42.694;23.314;2023-08-01T05:58:52;94788.19;;;25.08;45.19
70127;BME280;57491;42.694;23.314;2023-08-01T06:01:19;94795.03;;;25.19;44.97
70127;BME280;57491;42.694;23.314;2023-08-01T06:03:46;94790.75;;;25.23;44.78
70127;BME280;57491;42.694;23.314;2023-08-01T06:06:13;94787.25;;;25.28;44.69
70127;BME280;57491;42.694;23.314;2023-08-01T06:08:40;94788.97;;;25.48;44.32
70127;BME280;57491;42.694;23.314;2023-08-01T06:11:07;94794.75;;;25.60;44.04
70127;BME280;57491;42.694;23.314;2023-08-01T06:13:36;94788.22;;;25.76;43.57
70127;BME280;57491;42.694;23.314;2023-08-01T06:16:03;94791.81;;;25.90;42.92
70127;BME280;57491;42.694;23.314;2023-08-01T06:18:31;94790.59;;;26.06;41.90
70127;BME280;57491;42.694;23.314;2023-08-01T06:20:58;94786.34;;;26.05;41.43
70127;BME280;57491;42.694;23.314;2023-08-01T06:23:25;94785.78;;;26.08;41.55
70127;BME280;57491;42.694;23.314;2023-08-01T06:25:52;94792.59;;;26.19;41.81
70127;BME280;57491;42.694;23.314;2023-08-01T06:28:19;94795.69;;;26.32;41.46
70127;BME280;57491;42.694;23.314;2023-08-01T06:30:47;94779.91;;;26.35;40.65
70127;BME280;57491;42.694;23.314;2023-08-01T06:33:14;94786.50;;;26.43;40.95
70127;BME280;57491;42.694;23.314;2023-08-01T06:35:41;94784.34;;;26.45;41.15
70127;BME280;57491;42.694;23.314;2023-08-01T06:38:08;94780.69;;;26.59;42.37
70127;BME280;57491;42.694;23.314;2023-08-01T06:40:35;94781.22;;;26.80;41.27
70127;BME280;57491;42.694;23.314;2023-08-01T06:43:02;94783.50;;;26.92;41.06
70127;BME280;57491;42.694;23.314;2023-08-01T06:45:29;94777.88;;;26.93;40.94
70127;BME280;57491;42.694;23.314;2023-08-01T06:47:58;94785.16;;;27.06;40.10
70127;BME280;57491;42.694;23.314;2023-08-01T06:50:26;94770.38;;;27.14;39.91
70127;BME280;57491;42.694;23.314;2023-08-01T06:52:53;94775.59;;;27.38;40.07
70127;BME280;57491;42.694;23.314;2023-08-01T06:55:20;94778.50;;;27.60;39.44
70127;BME280;57491;42.694;23.314;2023-08-01T06:57:47;94761.69;;;27.60;38.31
70127;BME280;57491;42.694;23.314;2023-08-01T07:00:14;94776.16;;;27.72;38.06
70127;BME280;57491;42.694;23.314;2023-08-01T07:02:41;94783.09;;;27.73;38.95
70127;BME280;57491;42.694;23.314;2023-08-01T07:05:10;94779.03;;;27.76;38.42
70127;BME280;57491;42.694;23.314;2023-08-01T07:07:37;94780.91;;;27.75;38.37
70127;BME280;57491;42.694;23.314;2023-08-01T07:10:05;94762.22;;;27.75;38.71
70127;BME280;57491;42.694;23.314;2023-08-01T07:12:32;94765.53;;;28.00;38.08
70127;BME280;57491;42.694;23.314;2023-08-01T07:14:59;94764.19;;;28.16;37.99
70127;BME280;57491;42.694;23.314;2023-08-01T07:17:27;94762.81;;;28.18;37.50
70127;BME280;57491;42.694;23.314;2023-08-01T07:19:54;94767.66;;;28.30;37.87
70127;BME280;57491;42.694;23.314;2023-08-01T07:22:22;94758.03;;;28.29;38.04
70127;BME280;57491;42.694;23.314;2023-08-01T07:24:52;94763.47;;;28.37;37.26
70127;BME280;57491;42.694;23.314;2023-08-01T07:27:20;94762.59;;;28.42;37.23
70127;BME280;57491;42.694;23.314;2023-08-01T07:29:47;94759.81;;;28.47;37.27
70127;BME280;57491;42.694;23.314;2023-08-01T07:32:15;94744.47;;;28.53;37.02
70127;BME280;57491;42.694;23.314;2023-08-01T07:34:42;94750.41;;;28.63;36.92
70127;BME280;57491;42.694;23.314;2023-08-01T07:37:09;94743.03;;;28.69;36.45
70127;BME280;57491;42.694;23.314;2023-08-01T07:39:37;94754.25;;;28.85;36.63
70127;BME280;57491;42.694;23.314;2023-08-01T07:42:04;94750.25;;;28.96;35.81
70127;BME280;57491;42.694;23.314;2023-08-01T07:44:32;94749.81;;;29.16;35.82
70127;BME280;57491;42.694;23.314;2023-08-01T07:46:59;94751.38;;;29.31;35.73
70127;BME280;57491;42.694;23.314;2023-08-01T07:49:26;94749.88;;;29.24;35.85
70127;BME280;57491;42.694;23.314;2023-08-01T07:51:53;94747.00;;;29.21;35.35
70127;BME280;57491;42.694;23.314;2023-08-01T07:54:20;94752.19;;;29.17;35.61
70127;BME280;57491;42.694;23.314;2023-08-01T07:56:48;94755.38;;;29.42;35.21
70127;BME280;57491;42.694;23.314;2023-08-01T07:59:15;94745.44;;;29.64;35.02
70127;BME280;57491;42.694;23.314;2023-08-01T08:01:42;94743.13;;;29.72;34.63
70127;BME280;57491;42.694;23.314;2023-08-01T08:04:09;94747.69;;;29.93;34.46
70127;BME280;57491;42.694;23.314;2023-08-01T08:06:37;94730.69;;;29.98;33.99
70127;BME280;57491;42.694;23.314;2023-08-01T08:09:03;94747.00;;;30.19;33.67
70127;BME280;57491;42.694;23.314;2023-08-01T08:11:31;94740.72;;;30.23;33.64
70127;BME280;57491;42.694;23.314;2023-08-01T08:14:00;94744.84;;;30.29;34.15
70127;BME280;57491;42.694;23.314;2023-08-01T08:16:27;94746.03;;;30.45;33.52
70127;BME280;57491;42.694;23.314;2023-08-01T08:18:55;94737.06;;;30.19;33.11
70127;BME280;57491;42.694;23.314;2023-08-01T08:21:22;94735.06;;;30.33;33.00
70127;BME280;57491;42.694;23.314;2023-08-01T08:23:49;94734.22;;;30.16;33.08
70127;BME280;57491;42.694;23.314;2023-08-01T08:26:16;94730.34;;;30.30;33.37
70127;BME280;57491;42.694;23.314;2023-08-01T08:28:43;94734.44;;;30.36;33.13
70127;BME280;57491;42.694;23.314;2023-08-01T08:31:12;94729.22;;;30.31;33.22
70127;BME280;57491;42.694;23.314;2023-08-01T08:33:39;94716.38;;;30.59;33.50
70127;BME280;57491;42.694;23.314;2023-08-01T08:36:06;94716.16;;;31.04;32.61
70127;BME280;57491;42.694;23.314;2023-08-01T08:38:33;94714.06;;;30.92;32.40
70127;BME280;57491;42.694;23.314;2023-08-01T08:41:06;94709.63;;;30.79;33.64
70127;BME280;57491;42.694;23.314;2023-08-01T08:43:35;94708.97;;;30.56;33.17
70127;BME280;57491;42.694;23.314;2023-08-01T08:46:03;94702.84;;;30.90;33.41
70127;BME280;57491;42.694;23.314;2023-08-01T08:48:32;94700.34;;;31.28;32.56
70127;BME280;57491;42.694;23.314;2023-08-01T08:51:00;94701.56;;;31.73;31.64
70127;BME280;57491;42.694;23.314;2023-08-01T08:53:30;94699.03;;;32.06;30.60
70127;BME280;57491;42.694;23.314;2023-08-01T08:55:59;94696.78;;;32.25;30.35
70127;BME280;57491;42.694;23.314;2023-08-01T08:58:26;94694.66;;;32.40;30.33
70127;BME280;57491;42.694;23.314;2023-08-01T09:00:55;94695.13;;;32.42;30.10
70127;BME280;57491;42.694;23.314;2023-08-01T09:03:23;94686.88;;;32.47;30.09
70127;BME280;57491;42.694;23.314;2023-08-01T09:05:57;94689.56;;;32.47;29.64
70127;BME280;57491;42.694;23.314;2023-08-01T09:08:28;94678.78;;;32.76;29.98
70127;BME280;57491;42.694;23.314;2023-08-01T09:10:57;94678.00;;;33.17;29.37
70127;BME280;57491;42.694;23.314;2023-08-01T09:13:24;94667.84;;;33.35;28.17
70127;BME280;57491;42.694;23.314;2023-08-01T09:15:51;94678.53;;;33.76;27.84
70127;BME280;57491;42.694;23.314;2023-08-01T09:18:18;94662.16;;;33.93;28.24
70127;BME280;57491;42.694;23.314;2023-08-01T09:20:45;94668.72;;;34.17;27.34
70127;BME280;57491;42.694;23.314;2023-08-01T09:23:15;94669.97;;;34.31;27.11
70127;BME280;57491;42.694;23.314;2023-08-01T09:25:43;94665.97;;;33.92;26.86
70127;BME280;57491;42.694;23.314;2023-08-01T09:28:17;94663.94;;;33.77;27.27
70127;BME280;57491;42.694;23.314;2023-08-01T09:30:46;94667.34;;;33.21;27.83
70127;BME280;57491;42.694;23.314;2023-08-01T09:33:14;94662.47;;;33.14;27.78
70127;BME280;57491;42.694;23.314;2023-08-01T09:35:41;94657.75;;;33.32;28.11
70127;BME280;57491;42.694;23.314;2023-08-01T09:38:10;94660.78;;;33.75;28.15
70127;BME280;57491;42.694;23.314;2023-08-01T09:40:40;94657.19;;;33.95;27.23
70127;BME280;57491;42.694;23.314;2023-08-01T09:43:08;94641.25;;;33.90;27.57
70127;BME280;57491;42.694;23.314;2023-08-01T09:45:35;94654.31;;;34.13;26.97
70127;BME280;57491;42.694;23.314;2023-08-01T09:48:02;94644.28;;;33.89;27.21
70127;BME280;57491;42.694;23.314;2023-08-01T09:50:31;94649.25;;;33.99;27.24
70127;BME280;57491;42.694;23.314;2023-08-01T09:53:07;94647.22;;;34.32;26.91
70127;BME280;57491;42.694;23.314;2023-08-01T09:55:34;94635.41;;;34.37;26.73
70127;BME280;57491;42.694;23.314;2023-08-01T09:58:04;94639.25;;;34.24;26.77
70127;BME280;57491;42.694;23.314;2023-08-01T10:00:32;94627.72;;;34.75;26.11
70127;BME280;57491;42.694;23.314;2023-08-01T10:03:00;94618.75;;;34.99;25.83
70127;BME280;57491;42.694;23.314;2023-08-01T10:05:29;94620.72;;;35.14;25.66
70127;BME280;57491;42.694;23.314;2023-08-01T10:07:58;94615.41;;;35.61;25.19
70127;BME280;57491;42.694;23.314;2023-08-01T10:10:26;94613.44;;;35.90;24.91
70127;BME280;57491;42.694;23.314;2023-08-01T10:12:54;94615.44;;;36.24;24.50
70127;BME280;57491;42.694;23.314;2023-08-01T10:15:23;94606.28;;;36.48;24.24
70127;BME280;57491;42.694;23.314;2023-08-01T10:17:51;94605.28;;;36.72;24.95
70127;BME280;57491;42.694;23.314;2023-08-01T10:20:20;94608.78;;;36.72;24.37
70127;BME280;57491;42.694;23.314;2023-08-01T10:22:49;94596.50;;;36.43;24.26
70127;BME280;57491;42.694;23.314;2023-08-01T10:25:17;94606.38;;;36.51;24.60
70127;BME280;57491;42.694;23.314;2023-08-01T10:27:44;94600.47;;;36.46;25.06
70127;BME280;57491;42.694;23.314;2023-08-01T10:30:12;94586.13;;;36.45;24.51
70127;BME280;57491;42.694;23.314;2023-08-01T10:32:40;94591.19;;;36.47;24.52
70127;BME280;57491;42.694;23.314;2023-08-01T10:35:08;94576.69;;;36.20;24.43
70127;BME280;57491;42.694;23.314;2023-08-01T10:37:41;94589.13;;;36.40;24.43
70127;BME280;57491;42.694;23.314;2023-08-01T10:40:09;94577.22;;;36.45;23.43
70127;BME280;57491;42.694;23.314;2023-08-01T10:42:40;94584.78;;;36.55;23.35
70127;BME280;57491;42.694;23.314;2023-08-01T10:45:19;94582.00;;;36.51;23.40
70127;BME280;57491;42.694;23.314;2023-08-01T10:47:48;94572.03;;;36.55;23.39
70127;BME280;57491;42.694;23.314;2023-08-01T10:50:16;94566.72;;;36.43;23.42
70127;BME280;57491;42.694;23.314;2023-08-01T10:52:44;94564.25;;;36.54;23.41
70127;BME280;57491;42.694;23.314;2023-08-01T10:55:12;94563.16;;;36.74;23.23
70127;BME280;57491;42.694;23.314;2023-08-01T10:57:47;94557.66;;;36.51;23.36
70127;BME280;57491;42.694;23.314;2023-08-01T11:00:16;94553.59;;;36.26;23.96
70127;BME280;57491;42.694;23.314;2023-08-01T11:02:50;94537.88;;;35.81;23.66
70127;BME280;57491;42.694;23.314;2023-08-01T11:05:18;94555.66;;;35.82;23.35
70127;BME280;57491;42.694;23.314;2023-08-01T11:07:53;94523.25;;;35.66;23.46
70127;BME280;57491;42.694;23.314;2023-08-01T11:10:22;94541.88;;;35.87;23.07
70127;BME280;57491;42.694;23.314;2023-08-01T11:12:49;94532.31;;;36.09;23.34
70127;BME280;57491;42.694;23.314;2023-08-01T11:15:16;94529.94;;;35.88;23.60
70127;BME280;57491;42.694;23.314;2023-08-01T11:17:47;94520.59;;;35.86;23.66
70127;BME280;57491;42.694;23.314;2023-08-01T11:20:17;94514.75;;;35.84;23.09
70127;BME280;57491;42.694;23.314;2023-08-01T11:22:53;94521.41;;;35.70;23.64
70127;BME280;57491;42.694;23.314;2023-08-01T11:25:32;94525.47;;;35.96;23.13
70127;BME280;57491;42.694;23.314;2023-08-01T11:28:03;94509.31;;;36.53;22.26
70127;BME280;57491;42.694;23.314;2023-08-01T11:30:31;94511.59;;;36.90;22.02
70127;BME280;57491;42.694;23.314;2023-08-01T11:32:59;94486.13;;;36.94;21.80
70127;BME280;57491;42.694;23.314;2023-08-01T11:35:27;94501.50;;;37.06;22.37
70127;BME280;57491;42.694;23.314;2023-08-01T11:37:55;94500.50;;;36.76;21.97
70127;BME280;57491;42.694;23.314;2023-08-01T11:40:24;94501.72;;;37.20;21.74
70127;BME280;57491;42.694;23.314;2023-08-01T11:42:56;94501.16;;;37.79;21.16
70127;BME280;57491;42.694;23.314;2023-08-01T11:45:24;94492.03;;;38.17;21.06
70127;BME280;57491;42.694;23.314;2023-08-01T11:47:51;94480.56;;;38.01;21.03
70127;BME280;57491;42.694;23.314;2023-08-01T11:50:21;94494.16;;;38.31;19.64
70127;BME280;57491;42.694;23.314;2023-08-01T11:52:50;94492.28;;;38.38;19.58
70127;BME280;57491;42.694;23.314;2023-08-01T11:55:22;94493.50;;;38.71;18.99
70127;BME280;57491;42.694;23.314;2023-08-01T11:57:56;94481.16;;;38.77;19.34
70127;BME280;57491;42.694;23.314;2023-08-01T12:00:25;94482.97;;;38.99;19.04
70127;BME280;57491;42.694;23.314;2023-08-01T12:03:03;94472.81;;;38.96;19.15
70127;BME280;57491;42.694;23.314;2023-08-01T12:05:31;94465.59;;;38.14;19.17
70127;BME280;57491;42.694;23.314;2023-08-01T12:08:09;94466.25;;;38.04;18.90
70127;BME280;57491;42.694;23.314;2023-08-01T12:10:38;94472.25;;;37.41;19.97
70127;BME280;57491;42.694;23.314;2023-08-01T12:13:05;94460.44;;;37.30;19.85
70127;BME280;57491;42.694;23.314;2023-08-01T12:15:32;94460.41;;;37.76;19.34
70127;BME280;57491;42.694;23.314;2023-08-01T12:17:59;94463.88;;;37.99;19.36
70127;BME280;57491;42.694;23.314;2023-08-01T12:20:26;94450.06;;;38.11;18.58
70127;BME280;57491;42.694;23.314;2023-08-01T12:22:53;94449.31;;;38.14;19.18
70127;BME280;57491;42.694;23.314;2023-08-01T12:25:21;94458.84;;;37.75;19.44
70127;BME280;57491;42.694;23.314;2023-08-01T12:27:49;94442.44;;;37.19;20.82
70127;BME280;57491;42.694;23.314;2023-08-01T12:30:16;94440.31;;;36.86;20.80
70127;BME280;57491;42.694;23.314;2023-08-01T12:32:43;94425.75;;;36.52;20.82
70127;BME280;57491;42.694;23.314;2023-08-01T12:35:10;94439.91;;;36.45;21.13
70127;BME280;57491;42.694;23.314;2023-08-01T12:37:37;94433.53;;;36.15;20.38
70127;BME280;57491;42.694;23.314;2023-08-01T12:40:06;94434.19;;;35.93;21.38
70127;BME280;57491;42.694;23.314;2023-08-01T12:42:34;94430.69;;;35.57;20.46
70127;BME280;57491;42.694;23.314;2023-08-01T12:45:02;94424.84;;;35.40;20.00
70127;BME280;57491;42.694;23.314;2023-08-01T12:47:30;94419.72;;;35.19;20.13
70127;BME280;57491;42.694;23.314;2023-08-01T12:49:56;94409.66;;;34.72;19.25
70127;BME280;57491;42.694;23.314;2023-08-01T12:52:24;94400.81;;;34.44;19.67